Time;durP1;ratioP1;P1;durP2;ratioP2;P2;SDS_P1;SDS_P2;PMS_P1;PMS_P2;Temp;Humidity;BMP_temperature;BMP_pressure;BME280_temperature;BME280_humidity;BME280_pressure;Samples;Min_cycle;Max_cycle;Signal;HPM_P1;HPM_P2
2022/05/01 00:01:15;;;;;;;24.45;13.20;;;;;;;2.47;63.39;100136.88;5074493;28;20051;-76
2022/05/01 00:03:42;;;;;;;20.58;11.10;;;;;;;2.45;63.61;100130.84;5053970;28;20037;-76
2022/05/01 00:06:08;;;;;;;17.48;10.35;;;;;;;2.39;63.62;100138.31;5062985;28;20047;-77
2022/05/01 00:08:39;;;;;;;21.20;10.10;;;;;;;2.30;63.53;100130.28;5057564;28;20036;-76
2022/05/01 00:11:06;;;;;;;20.00;10.80;;;;;;;2.33;63.20;100135.50;5074418;28;20098;-76
2022/05/01 00:13:31;;;;;;;;;;;;;;;2.27;63.46;100142.97;5062345;28;20036;-76
2022/05/01 00:15:57;;;;;;;22.20;10.82;;;;;;;2.23;62.95;100136.88;5055165;28;19927;-76
2022/05/01 00:18:23;;;;;;;24.65;11.55;;;;;;;2.25;63.07;100144.63;5044248;28;20116;-76
2022/05/01 00:20:50;;;;;;;25.83;12.07;;;;;;;2.24;63.42;100138.59;5046123;28;20096;-76
2022/05/01 00:23:15;;;;;;;20.20;10.38;;;;;;;2.24;62.53;100143.72;5039006;28;20036;-77
2022/05/01 00:25:42;;;;;;;19.92;10.57;;;;;;;2.22;62.54;100152.19;5073976;28;20044;-77
2022/05/01 00:28:07;;;;;;;;;;;;;;;2.16;63.17;100149.41;5040468;28;20147;-77
2022/05/01 00:30:33;;;;;;;19.88;11.50;;;;;;;2.13;62.31;100149.28;5057228;28;19920;-77
2022/05/01 00:38:27;;;;;;;18.85;10.40;;;;;;;1.98;63.49;100142.75;5035632;28;20091;-77
2022/05/01 00:40:54;;;;;;;19.80;10.00;;;;;;;1.97;63.70;100150.38;5037492;28;20079;-76
2022/05/01 00:43:20;;;;;;;18.48;9.52;;;;;;;1.93;63.68;100141.72;5054775;28;20068;-76
2022/05/01 00:45:45;;;;;;;18.77;10.85;;;;;;;1.90;64.12;100146.72;5060648;28;20052;-76
2022/05/01 00:48:11;;;;;;;19.25;10.23;;;;;;;1.91;64.83;100148.44;5059614;28;20119;-76
2022/05/01 00:50:36;;;;;;;20.05;9.93;;;;;;;1.94;64.89;100146.03;5057354;28;20056;-77
2022/05/01 00:53:04;;;;;;;14.90;8.98;;;;;;;1.98;64.33;100142.75;5073604;28;20064;-77
2022/05/01 00:55:31;;;;;;;19.77;9.57;;;;;;;1.97;64.29;100143.59;5011015;28;20099;-77
2022/05/01 00:57:57;;;;;;;20.58;10.05;;;;;;;1.98;64.44;100135.09;5029612;28;20049;-76
2022/05/01 01:00:22;;;;;;;22.35;10.65;;;;;;;1.99;64.06;100141.94;5056920;28;20028;-75
2022/05/01 01:02:48;;;;;;;23.27;10.40;;;;;;;2.01;64.32;100145.41;5039927;28;20453;-75
2022/05/01 01:05:14;;;;;;;21.13;10.25;;;;;;;1.99;64.05;100146.19;5073525;28;20398;-76
2022/05/01 01:07:40;;;;;;;23.88;10.48;;;;;;;1.98;64.46;100145.31;5040266;28;20048;-76
2022/05/01 01:10:06;;;;;;;20.92;9.80;;;;;;;1.95;64.63;100149.44;5056875;28;20039;-77
2022/05/01 01:15:16;;;;;;;24.55;11.13;;;;;;;1.96;64.61;100154.59;5056225;28;20094;-77
2022/05/01 01:17:42;;;;;;;21.67;10.68;;;;;;;1.95;64.79;100139.22;5073255;28;20467;-78
2022/05/01 01:20:15;;;;;;;23.55;10.90;;;;;;;1.97;64.78;100158.94;5073007;28;20048;-77
2022/05/01 01:22:44;;;;;;;19.17;9.77;;;;;;;1.91;64.91;100157.81;5073293;28;20075;-77
2022/05/01 01:25:10;;;;;;;19.05;10.20;;;;;;;1.83;64.52;100137.03;5073258;28;20028;-76
2022/05/01 01:27:40;;;;;;;16.30;9.23;;;;;;;1.89;65.26;100155.22;5073602;28;20074;-76
2022/05/01 01:32:51;;;;;;;15.50;9.00;;;;;;;1.91;64.48;100155.25;5073569;28;20040;-76
2022/05/01 01:35:18;;;;;;;17.38;9.77;;;;;;;1.88;65.29;100158.59;5073959;28;20039;-77
2022/05/01 01:37:45;;;;;;;17.38;9.65;;;;;;;1.87;65.27;100161.94;5073536;28;20468;-76
2022/05/01 01:40:12;;;;;;;16.33;8.98;;;;;;;1.85;65.50;100157.59;5022989;28;20109;-76
2022/05/01 01:42:39;;;;;;;14.93;9.02;;;;;;;1.79;65.74;100155.66;5039131;28;20410;-76
2022/05/01 01:45:05;;;;;;;18.08;9.75;;;;;;;1.77;66.07;100152.16;5055978;28;20115;-77
2022/05/01 01:47:33;;;;;;;17.02;9.80;;;;;;;1.71;66.20;100149.38;5039679;28;20053;-77
2022/05/01 01:49:58;;;;;;;13.30;8.10;;;;;;;1.69;66.49;100151.84;5043121;28;20032;-77
2022/05/01 01:52:24;;;;;;;15.88;9.75;;;;;;;1.73;66.41;100157.97;5072354;28;20032;-77
2022/05/01 01:54:51;;;;;;;17.90;8.52;;;;;;;1.67;66.90;100143.25;5072099;28;20032;-77
2022/05/01 01:57:17;;;;;;;14.30;8.43;;;;;;;1.69;66.55;100151.00;5072194;28;20045;-76
2022/05/01 01:59:42;;;;;;;15.73;9.43;;;;;;;1.71;66.59;100155.38;5069240;28;20119;-76
2022/05/01 02:02:09;;;;;;;18.92;8.70;;;;;;;1.69;66.99;100148.44;5062689;28;20063;-76
2022/05/01 02:04:34;;;;;;;16.05;9.50;;;;;;;1.66;66.75;100156.88;5073373;28;20036;-77
2022/05/01 02:07:00;;;;;;;15.43;9.48;;;;;;;1.64;66.86;100160.16;5073503;28;20040;-77
2022/05/01 02:09:26;;;;;;;16.02;9.20;;;;;;;1.61;67.01;100160.06;5055403;28;20032;-77
2022/05/01 02:11:53;;;;;;;15.00;9.35;;;;;;;1.52;67.17;100158.00;5058775;28;20529;-76
2022/05/01 02:14:19;;;;;;;16.65;9.73;;;;;;;1.54;67.30;100176.84;5071804;28;20047;-76
2022/05/01 02:16:45;;;;;;;18.42;9.95;;;;;;;1.49;67.55;100163.88;5055569;28;20119;-76
2022/05/01 02:19:10;;;;;;;18.67;10.75;;;;;;;1.39;68.03;100161.75;5073393;28;20032;-76
2022/05/01 02:21:36;;;;;;;17.83;10.57;;;;;;;1.42;68.38;100169.56;5072107;28;20079;-77
2022/05/01 02:24:06;;;;;;;15.43;9.93;;;;;;;1.42;68.39;100169.56;5072779;28;20036;-77
2022/05/01 02:26:32;;;;;;;16.52;10.27;;;;;;;1.55;68.24;100170.03;5054856;28;20418;-77
2022/05/01 02:28:59;;;;;;;17.33;9.77;;;;;;;1.59;67.71;100170.22;5054979;28;20068;-77
2022/05/01 02:31:26;;;;;;;15.70;9.35;;;;;;;1.64;67.87;100167.84;5071917;28;20051;-76
2022/05/01 02:33:52;;;;;;;14.95;9.18;;;;;;;1.58;67.61;100171.03;5055189;28;20399;-77
2022/05/01 02:36:18;;;;;;;17.08;11.25;;;;;;;1.60;67.58;100173.63;5055276;28;20068;-76
2022/05/01 02:38:46;;;;;;;16.63;10.32;;;;;;;1.63;67.79;100176.34;5071570;28;20044;-77
2022/05/01 02:41:13;;;;;;;18.27;9.90;;;;;;;1.60;67.39;100177.06;5055478;28;20036;-77
2022/05/01 02:43:38;;;;;;;18.58;9.88;;;;;;;1.64;67.73;100180.63;5055069;28;20495;-77
2022/05/01 02:46:04;;;;;;;;;;;;;;;1.62;68.00;100170.34;5047428;28;20072;-76
2022/05/01 02:48:30;;;;;;;17.88;9.35;;;;;;;1.65;67.59;100172.13;5053591;28;19951;-77
2022/05/01 02:50:56;;;;;;;16.65;9.27;;;;;;;1.71;67.45;100174.97;5075944;28;20467;-77
2022/05/01 02:53:21;;;;;;;;;;;;;;;1.74;68.05;100178.50;5077383;28;20068;-77
2022/05/01 02:55:49;;;;;;;14.88;8.77;;;;;;;1.73;67.75;100181.84;5076675;28;19916;-78
2022/05/01 02:58:14;;;;;;;16.92;9.15;;;;;;;1.71;67.08;100177.50;5076909;28;20086;-77
2022/05/01 03:00:40;;;;;;;13.02;8.85;;;;;;;1.73;66.75;100178.44;5076633;28;20040;-77
2022/05/01 03:03:06;;;;;;;14.52;9.45;;;;;;;1.72;66.87;100181.81;5075577;28;20032;-76
2022/05/01 03:05:32;;;;;;;21.15;10.20;;;;;;;1.69;67.29;100179.13;5042251;28;20052;-75
2022/05/01 03:07:57;;;;;;;20.73;10.02;;;;;;;1.66;67.42;100189.25;5060974;28;20041;-77
2022/05/01 03:10:23;;;;;;;16.63;10.05;;;;;;;1.69;67.80;100189.34;5062554;28;20056;-78
2022/05/01 03:12:49;;;;;;;15.23;9.75;;;;;;;1.79;67.76;100183.81;5025400;28;20042;-76
2022/05/01 03:15:15;;;;;;;16.52;9.75;;;;;;;1.86;67.92;100192.59;5056106;28;20507;-76
2022/05/01 03:23:09;;;;;;;15.60;8.75;;;;;;;2.11;65.81;100186.72;5075401;28;20172;-77
2022/05/01 03:25:34;;;;;;;14.80;8.70;;;;;;;2.18;65.19;100178.47;5043099;28;20498;-78
2022/05/01 03:28:00;;;;;;;11.82;7.35;;;;;;;2.35;62.10;100173.97;5075980;28;20048;-77
2022/05/01 03:30:26;;;;;;;15.13;7.70;;;;;;;2.50;60.51;100180.53;5074806;28;20032;-77
2022/05/01 03:32:52;;;;;;;17.52;9.02;;;;;;;2.59;60.21;100177.44;5041754;28;20047;-76
2022/05/01 03:35:17;;;;;;;18.88;8.48;;;;;;;2.64;59.72;100182.72;5075371;28;20040;-76
2022/05/01 03:37:43;;;;;;;14.00;8.23;;;;;;;2.71;59.10;100182.13;5075197;28;20552;-76
2022/05/01 03:40:13;;;;;;;16.92;8.07;;;;;;;2.65;58.76;100164.84;5076035;28;20067;-77
2022/05/01 03:42:39;;;;;;;15.32;8.30;;;;;;;2.85;58.60;100182.63;5058415;28;20044;-75
2022/05/01 03:45:05;;;;;;;15.20;8.48;;;;;;;2.91;57.96;100180.25;5058429;28;20534;-76
2022/05/01 03:47:32;;;;;;;13.18;7.60;;;;;;;3.03;57.39;100189.25;5042750;28;20038;-75
2022/05/01 03:49:58;;;;;;;13.52;7.70;;;;;;;3.07;57.16;100190.25;5075999;28;20039;-76
2022/05/01 03:52:24;;;;;;;;;;;;;;;3.13;56.65;100189.56;5074898;28;20043;-76
2022/05/01 03:54:50;;;;;;;15.32;7.57;;;;;;;3.22;56.40;100195.00;5075082;28;20002;-79
2022/05/01 03:57:15;;;;;;;;;;;;;;;3.31;55.38;100188.50;5076366;28;20037;-76
2022/05/01 03:59:41;;;;;;;13.02;7.00;;;;;;;3.40;54.98;100187.94;5057518;28;19912;-77
2022/05/01 04:02:07;;;;;;;15.23;7.40;;;;;;;3.49;55.41;100188.22;5041456;28;20044;-77
2022/05/01 04:04:32;;;;;;;11.50;6.82;;;;;;;3.56;54.32;100184.16;5074544;28;20510;-75
2022/05/01 04:06:58;;;;;;;13.80;7.63;;;;;;;3.65;54.22;100191.28;5074275;28;20093;-76
2022/05/01 04:09:24;;;;;;;12.38;7.05;;;;;;;3.72;54.54;100186.41;5075803;28;20028;-78
2022/05/01 04:11:53;;;;;;;12.65;7.22;;;;;;;3.79;54.58;100187.44;5074639;28;20040;-76
2022/05/01 04:14:19;;;;;;;11.68;6.70;;;;;;;3.86;54.32;100189.41;5075568;28;20388;-75
2022/05/01 04:16:45;;;;;;;12.38;7.10;;;;;;;3.92;54.01;100186.16;5075428;28;20036;-76
2022/05/01 04:19:12;;;;;;;11.88;6.97;;;;;;;4.05;53.62;100189.13;5075681;28;20031;-77
2022/05/01 04:21:38;;;;;;;11.95;6.93;;;;;;;4.03;53.13;100167.69;5074255;28;20047;-76
2022/05/01 04:24:05;;;;;;;13.65;7.68;;;;;;;4.16;53.64;100184.31;5074895;28;20036;-77
2022/05/01 04:26:30;;;;;;;12.88;6.90;;;;;;;4.23;53.74;100185.38;5073650;28;20467;-78
2022/05/01 04:31:40;;;;;;;11.30;6.68;;;;;;;4.38;52.68;100190.97;5073680;28;20051;-77
2022/05/01 04:34:06;;;;;;;11.73;5.88;;;;;;;4.42;53.14;100185.09;5075320;28;20181;-77
2022/05/01 04:36:32;;;;;;;9.30;6.07;;;;;;;4.48;52.80;100192.09;5075018;28;20403;-76
2022/05/01 04:38:57;;;;;;;13.40;6.45;;;;;;;4.54;53.08;100182.03;5040571;28;20051;-77
2022/05/01 04:41:23;;;;;;;14.38;6.63;;;;;;;4.56;52.81;100177.78;5063582;28;20051;-77
2022/05/01 04:43:49;;;;;;;10.02;5.85;;;;;;;4.61;52.81;100190.75;5051242;28;20041;-76
2022/05/01 04:46:15;;;;;;;12.30;6.03;;;;;;;4.70;52.48;100191.00;5068489;28;20098;-78
2022/05/01 04:48:40;;;;;;;12.38;6.20;;;;;;;4.78;52.65;100185.25;5065417;28;20098;-76
2022/05/01 04:51:06;;;;;;;11.98;6.15;;;;;;;4.85;52.07;100182.00;5073310;28;20285;-77
2022/05/01 04:53:32;;;;;;;10.55;5.30;;;;;;;4.98;51.48;100187.50;5039997;28;20040;-77
2022/05/01 04:57:04;;;;;;;9.23;5.20;;;;;;;5.13;51.32;100197.31;5056624;28;20177;-77
2022/05/01 04:58:44;;;;;;;7.00;4.38;;;;;;;5.27;47.08;100191.72;5059655;28;20059;-77
2022/05/01 05:01:10;;;;;;;6.90;3.78;;;;;;;5.39;45.83;100183.41;5039436;28;20033;-76
2022/05/01 05:03:36;;;;;;;9.07;5.03;;;;;;;5.45;45.16;100178.44;5059840;28;20039;-77
2022/05/01 05:06:01;;;;;;;9.75;4.82;;;;;;;5.58;45.51;100190.75;5073349;28;20037;-77
2022/05/01 05:11:11;;;;;;;6.93;4.07;;;;;;;5.82;45.07;100187.06;5073489;28;20055;-76
2022/05/01 05:13:37;;;;;;;5.68;3.65;;;;;;;5.89;44.32;100185.47;5058898;28;20037;-76
2022/05/01 05:16:08;;;;;;;9.18;3.67;;;;;;;5.95;44.29;100183.06;5072996;28;20105;-76
2022/05/01 05:18:36;;;;;;;6.88;3.75;;;;;;;6.06;44.38;100187.63;5059666;28;20163;-76
2022/05/01 05:21:02;;;;;;;9.40;3.80;;;;;;;6.17;44.01;100179.28;5058998;28;20032;-77
2022/05/01 05:23:28;;;;;;;7.72;3.40;;;;;;;6.24;43.77;100184.59;5062625;28;20455;-77
2022/05/01 05:25:53;;;;;;;7.97;3.20;;;;;;;6.35;42.77;100187.41;5040252;28;20033;-77
2022/05/01 05:28:19;;;;;;;4.53;2.80;;;;;;;6.43;42.59;100183.28;5072649;28;20171;-77
2022/05/01 05:30:46;;;;;;;7.90;2.85;;;;;;;6.51;42.82;100189.47;5073842;28;20041;-76
2022/05/01 05:33:12;;;;;;;4.72;3.00;;;;;;;6.58;41.87;100178.44;5056213;28;20126;-78
2022/05/01 05:35:38;;;;;;;4.68;3.00;;;;;;;6.70;42.08;100180.41;5056181;28;20495;-77
2022/05/01 05:38:04;;;;;;;8.35;3.10;;;;;;;6.75;42.45;100188.22;5072471;28;20521;-76
2022/05/01 05:40:29;;;;;;;7.10;2.95;;;;;;;6.76;41.95;100171.91;5072840;28;20032;-77
2022/05/01 05:42:55;;;;;;;4.43;2.85;;;;;;;6.77;41.90;100171.94;5058166;28;20411;-77
2022/05/01 05:45:21;;;;;;;5.25;3.20;;;;;;;6.85;41.61;100170.38;5074029;28;20063;-77
2022/05/01 05:47:46;;;;;;;5.25;2.80;;;;;;;6.91;41.08;100171.31;5058451;28;20519;-79
2022/05/01 05:50:12;;;;;;;6.22;2.92;;;;;;;7.01;40.66;100173.22;5055751;28;20053;-76
2022/05/01 05:52:38;;;;;;;6.03;2.58;;;;;;;7.10;41.37;100174.28;5073879;28;20438;-77
2022/05/01 05:55:04;;;;;;;9.93;3.53;;;;;;;7.20;40.96;100183.06;5072819;28;20036;-76
2022/05/01 05:57:30;;;;;;;5.03;2.80;;;;;;;7.25;40.64;100175.41;5073894;28;20041;-78
2022/05/01 05:59:55;;;;;;;5.00;2.97;;;;;;;7.25;40.30;100168.53;5074311;28;20047;-77
2022/05/01 06:02:21;;;;;;;8.40;3.22;;;;;;;7.24;40.27;100159.06;5043681;28;20070;-78
2022/05/01 06:04:46;;;;;;;6.90;2.80;;;;;;;7.30;40.85;100171.19;5054607;28;20037;-78
2022/05/01 06:07:12;;;;;;;4.65;2.58;;;;;;;7.36;40.51;100164.41;5074270;28;20078;-76
2022/05/01 06:09:38;;;;;;;5.50;2.53;;;;;;;7.37;39.75;100165.25;5039133;28;20044;-77
2022/05/01 06:12:04;;;;;;;6.00;2.80;;;;;;;7.49;39.53;100170.66;5055817;28;20086;-77
2022/05/01 06:14:30;;;;;;;6.18;2.90;;;;;;;7.59;39.38;100162.19;5073038;28;20119;-77
2022/05/01 06:16:56;;;;;;;;;;;;;;;7.73;39.09;100171.88;5072926;28;20051;-76
2022/05/01 06:19:21;;;;;;;6.57;2.67;;;;;;;7.91;39.02;100166.97;5072928;28;20375;-77
2022/05/01 06:21:47;;;;;;;4.55;2.60;;;;;;;7.99;39.68;100162.81;5072494;28;20044;-78
2022/05/01 06:24:13;;;;;;;5.43;2.67;;;;;;;8.04;39.02;100160.28;5072357;28;20075;-76
2022/05/01 06:26:39;;;;;;;6.03;2.60;;;;;;;7.98;38.96;100161.06;5072277;28;20060;-76
2022/05/01 06:29:04;;;;;;;4.93;2.90;;;;;;;8.04;38.87;100171.47;5072806;28;20094;-78
2022/05/01 06:31:30;;;;;;;3.72;2.50;;;;;;;8.00;38.95;100143.88;5072321;28;20040;-79
2022/05/01 06:33:56;;;;;;;3.35;2.00;;;;;;;8.26;37.90;100159.72;5072481;28;20053;-76
2022/05/01 06:36:21;;;;;;;4.70;2.30;;;;;;;8.32;37.52;100164.97;5045107;28;20091;-76
2022/05/01 06:38:47;;;;;;;4.38;2.45;;;;;;;8.32;38.05;100156.34;5054831;28;20132;-76
2022/05/01 06:41:14;;;;;;;6.88;2.63;;;;;;;8.41;38.62;100153.91;5073489;28;20094;-81
2022/05/01 06:43:39;;;;;;;4.10;2.72;;;;;;;8.51;38.22;100148.00;5038849;28;20064;-77
2022/05/01 06:46:05;;;;;;;6.53;2.42;;;;;;;8.57;37.72;100134.31;5047276;28;20154;-77
2022/05/01 06:48:31;;;;;;;3.80;2.17;;;;;;;8.76;35.98;100156.94;5036789;28;20040;-76
2022/05/01 06:50:57;;;;;;;4.65;1.80;;;;;;;8.73;35.29;100137.91;5072034;28;20048;-79
2022/05/01 06:53:22;;;;;;;4.68;1.75;;;;;;;8.88;35.43;100146.69;5039229;28;20032;-77
2022/05/01 06:55:49;;;;;;;3.78;1.92;;;;;;;9.00;35.73;100137.34;5057843;28;20041;-77
2022/05/01 06:58:14;;;;;;;4.65;2.20;;;;;;;9.15;34.51;100147.81;5055977;28;20028;-78
2022/05/01 07:00:40;;;;;;;5.30;2.08;;;;;;;9.24;34.02;100158.25;5072988;28;20453;-77
2022/05/01 07:03:06;;;;;;;4.53;2.15;;;;;;;9.35;33.66;100146.31;5041365;28;20036;-77
2022/05/01 07:05:32;;;;;;;3.38;1.83;;;;;;;9.50;31.79;100135.19;5040508;28;20048;-76
2022/05/01 07:07:57;;;;;;;5.18;1.90;;;;;;;9.76;31.71;100137.09;5038268;28;20033;-78
2022/05/01 07:10:23;;;;;;;2.90;1.73;;;;;;;10.01;30.96;100126.03;5055126;28;20048;-77
2022/05/01 07:12:49;;;;;;;5.03;2.10;;;;;;;10.33;30.63;100125.34;5039189;28;20407;-77
2022/05/01 07:15:14;;;;;;;;;;;;;;;10.79;31.84;100159.25;5065667;28;20480;-78
2022/05/01 07:17:40;;;;;;;2.88;1.83;;;;;;;11.16;30.18;100142.88;5047984;28;19916;-78
2022/05/01 07:20:07;;;;;;;;;;;;;;;11.47;29.30;100150.69;5059160;28;20046;-77
2022/05/01 07:22:33;;;;;;;3.65;2.08;;;;;;;11.69;29.10;100139.44;5071835;28;20003;-77
2022/05/01 07:24:59;;;;;;;2.72;1.60;;;;;;;11.90;27.93;100133.34;5072922;28;20071;-78
2022/05/01 07:27:24;;;;;;;5.55;1.90;;;;;;;11.92;27.85;100135.97;5071652;28;20057;-79
2022/05/01 07:29:50;;;;;;;;;;;;;;;11.67;27.78;100135.97;5073760;28;20048;-77
2022/05/01 07:32:15;;;;;;;3.25;1.92;;;;;;;11.58;28.44;100128.16;5067874;28;19912;-76
2022/05/01 07:34:41;;;;;;;3.45;2.05;;;;;;;11.78;28.80;100122.09;5052750;28;20037;-78
2022/05/01 07:37:06;;;;;;;;;;;;;;;11.98;28.07;100135.94;5069850;28;20039;-77
2022/05/01 07:39:32;;;;;;;3.70;2.17;;;;;;;12.07;27.91;100117.72;5064142;28;19952;-77
2022/05/01 07:41:58;;;;;;;;;;;;;;;12.01;27.56;100128.16;5059130;28;20059;-78
2022/05/01 07:44:23;;;;;;;3.35;2.10;;;;;;;11.88;27.98;100113.44;5058037;28;19920;-77
2022/05/01 07:46:51;;;;;;;;;;;;;;;12.10;28.03;100114.25;5044533;28;20025;-77
2022/05/01 07:49:17;;;;;;;3.17;1.88;;;;;;;12.55;28.05;100113.19;5103122;28;19920;-75
2022/05/01 07:51:42;;;;;;;;;;;;;;;12.82;25.41;100109.56;5048587;28;20028;-78
2022/05/01 07:54:08;;;;;;;3.30;2.03;;;;;;;12.85;26.23;100108.69;5074730;28;19922;-78
2022/05/01 07:56:34;;;;;;;3.22;1.70;;;;;;;13.09;25.90;100098.09;5074931;28;20028;-78
2022/05/01 07:58:59;;;;;;;;;;;;;;;13.38;24.95;100112.69;5042308;28;20176;-78
2022/05/01 08:01:25;;;;;;;4.30;1.90;;;;;;;13.54;25.41;100108.22;5076397;28;19920;-78
2022/05/01 08:06:36;;;;;;;6.68;2.00;;;;;;;13.93;24.95;100096.53;5046487;28;20095;-76
2022/05/01 08:09:01;;;;;;;;;;;;;;;14.05;25.87;100095.50;5058694;28;20040;-78
2022/05/01 08:11:27;;;;;;;3.58;2.10;;;;;;;14.27;24.28;100083.94;5057585;28;19920;-78
2022/05/01 08:13:53;;;;;;;;;;;;;;;14.38;23.53;100078.59;5075772;28;20040;-77
2022/05/01 08:16:20;;;;;;;5.75;3.80;;;;;;;14.65;23.82;100080.84;5066303;28;20387;-77
2022/05/01 08:21:32;;;;;;;2.63;1.52;;;;;;;15.33;22.76;100065.00;5075628;28;20081;-77
2022/05/01 08:23:58;;;;;;;3.35;2.00;;;;;;;15.35;22.73;100065.84;5074274;28;20032;-77
2022/05/01 08:26:24;;;;;;;4.03;1.60;;;;;;;15.56;22.48;100061.97;5075232;28;20533;-77
2022/05/01 08:28:51;;;;;;;;;;;;;;;15.55;21.32;100052.41;5052150;28;20069;-77
2022/05/01 08:31:17;;;;;;;3.70;1.58;;;;;;;15.80;22.19;100058.06;5074576;28;19920;-76
2022/05/01 08:33:44;;;;;;;3.55;1.85;;;;;;;16.08;22.26;100053.19;5061868;28;20059;-77
2022/05/01 08:36:10;;;;;;;;;;;;;;;16.18;23.24;100059.09;5075196;28;20498;-78
2022/05/01 08:38:39;;;;;;;3.67;1.95;;;;;;;16.32;21.63;100035.25;5057889;28;19955;-76
2022/05/01 08:41:06;;;;;;;3.03;1.73;;;;;;;16.50;21.61;100058.41;5054834;28;20036;-77
2022/05/01 08:43:32;;;;;;;3.60;1.60;;;;;;;16.60;20.84;100044.22;5063676;28;20036;-80
2022/05/01 08:45:59;;;;;;;4.38;2.55;;;;;;;16.68;20.88;100044.03;5054276;28;20064;-78
2022/05/01 08:48:34;;;;;;;6.22;2.10;;;;;;;16.84;20.52;100040.19;5064427;28;20039;-79
2022/05/01 08:51:01;;;;;;;4.53;2.30;;;;;;;17.21;20.93;100031.41;5074902;28;20032;-78
2022/05/01 08:53:27;;;;;;;3.90;2.30;;;;;;;17.56;19.94;100025.25;5055994;28;20059;-78
2022/05/01 08:55:52;;;;;;;4.00;1.95;;;;;;;17.96;19.35;100039.91;5051434;28;20036;-78
2022/05/01 08:58:18;;;;;;;4.22;1.65;;;;;;;17.92;19.42;100033.06;5075025;28;20039;-78
2022/05/01 09:00:44;;;;;;;3.25;1.55;;;;;;;17.98;19.47;100043.38;5040718;28;20032;-77
2022/05/01 09:03:10;;;;;;;3.25;2.08;;;;;;;17.93;19.77;100053.16;5073358;28;20036;-77
2022/05/01 09:05:36;;;;;;;7.50;1.80;;;;;;;17.95;19.13;100032.97;5068615;28;20037;-78
2022/05/01 09:08:01;;;;;;;3.28;2.08;;;;;;;17.98;19.13;100028.50;5051278;28;20082;-78
2022/05/01 09:10:27;;;;;;;4.75;1.83;;;;;;;18.15;18.83;100025.38;5074115;28;20534;-78
2022/05/01 09:12:53;;;;;;;2.78;1.70;;;;;;;18.26;18.41;100028.53;5040426;28;20029;-77
2022/05/01 09:15:36;;;;;;;4.80;2.30;;;;;;;18.41;18.66;100019.34;5056580;28;20411;-79
2022/05/01 09:18:03;;;;;;;3.20;1.98;;;;;;;18.89;19.05;100005.59;5020699;28;20041;-78
2022/05/01 09:20:30;;;;;;;3.45;1.67;;;;;;;19.16;18.09;100030.13;5037289;28;20029;-78
2022/05/01 09:22:57;;;;;;;3.40;1.60;;;;;;;18.42;18.88;100026.34;5053495;28;20130;-78
2022/05/01 09:25:23;;;;;;;3.13;2.00;;;;;;;18.24;19.04;100022.50;5036679;28;20040;-76
2022/05/01 09:27:51;;;;;;;3.67;1.95;;;;;;;18.19;18.97;100023.50;5036188;28;20049;-78
2022/05/01 09:30:20;;;;;;;3.65;2.00;;;;;;;17.89;19.34;100014.78;5054567;28;20051;-78
2022/05/01 09:32:46;;;;;;;4.20;1.88;;;;;;;17.77;19.35;100001.06;5036976;28;20044;-77
2022/05/01 09:35:17;;;;;;;3.95;2.00;;;;;;;17.73;19.68;100017.84;5036262;28;20490;-77
2022/05/01 09:37:44;;;;;;;3.35;2.03;;;;;;;18.09;19.14;100020.28;5036185;28;20052;-77
2022/05/01 09:40:10;;;;;;;3.38;1.88;;;;;;;18.45;19.36;100006.97;5053019;28;20033;-78
2022/05/01 09:42:36;;;;;;;4.20;1.73;;;;;;;18.37;18.34;100009.84;5020593;28;20040;-77
2022/05/01 09:45:06;;;;;;;3.00;1.60;;;;;;;18.26;17.92;99997.03;5036921;28;20398;-78
2022/05/01 09:47:42;;;;;;;3.70;1.50;;;;;;;17.94;18.34;99997.97;5056765;28;20041;-79
2022/05/01 09:50:08;;;;;;;2.35;1.70;;;;;;;17.59;19.54;100006.78;5039998;28;20043;-78
2022/05/01 09:52:54;;;;;;;3.22;1.70;;;;;;;16.89;19.84;100000.75;5072265;28;20036;-77
2022/05/01 09:55:20;;;;;;;2.77;1.73;;;;;;;16.08;20.50;99995.63;5072311;28;20040;-78
2022/05/01 09:57:46;;;;;;;2.85;1.60;;;;;;;15.75;21.67;99986.69;5071895;28;20336;-77
2022/05/01 10:00:12;;;;;;;4.00;1.70;;;;;;;15.50;21.40;99981.06;5073750;28;20490;-78
2022/05/01 10:02:38;;;;;;;2.88;1.60;;;;;;;15.33;21.06;99976.13;5039117;28;20131;-78
2022/05/01 10:05:06;;;;;;;4.10;1.80;;;;;;;15.56;21.97;99985.28;5073659;28;20067;-77
2022/05/01 10:07:37;;;;;;;3.00;1.88;;;;;;;15.65;21.35;99979.91;5072854;28;20083;-77
2022/05/01 10:10:06;;;;;;;4.20;2.05;;;;;;;16.01;21.46;99989.63;5072329;28;20414;-77
2022/05/01 10:12:41;;;;;;;5.05;2.00;;;;;;;15.96;21.56;99975.78;5072318;28;20101;-77
2022/05/01 10:15:08;;;;;;;6.15;3.45;;;;;;;15.58;21.88;99958.25;5071930;28;20044;-79
2022/05/01 10:17:34;;;;;;;4.43;1.85;;;;;;;15.87;21.40;99967.28;5072688;28;20033;-78
2022/05/01 10:20:02;;;;;;;2.53;1.50;;;;;;;16.28;20.73;99950.66;5032009;28;20037;-77
2022/05/01 10:22:28;;;;;;;5.53;2.40;;;;;;;16.35;20.73;99956.63;5042878;28;20032;-77
2022/05/01 10:24:53;;;;;;;4.63;2.15;;;;;;;15.99;20.86;99957.41;5052421;28;20041;-77
2022/05/01 10:27:34;;;;;;;4.05;1.50;;;;;;;15.73;20.95;99962.31;5073580;28;20053;-80
2022/05/01 10:33:17;;;;;;;3.38;2.03;;;;;;;16.53;20.40;99943.09;5044505;28;20045;-79
2022/05/01 10:35:45;;;;;;;3.72;1.70;;;;;;;17.04;20.04;99950.56;5072507;28;20457;-77
2022/05/01 10:38:27;;;;;;;3.33;1.92;;;;;;;17.39;19.77;99933.06;5073374;28;20021;-76
2022/05/01 10:40:57;;;;;;;5.20;1.90;;;;;;;17.57;19.48;99937.78;5055911;28;20387;-76
2022/05/01 10:43:30;;;;;;;5.45;1.77;;;;;;;17.37;19.47;99948.00;5039417;28;20507;-78
2022/05/01 10:46:00;;;;;;;3.25;1.55;;;;;;;17.36;19.18;99918.25;5064985;28;20064;-78
2022/05/01 10:48:37;;;;;;;3.13;1.30;;;;;;;17.96;18.58;99909.56;5035507;28;20047;-77
2022/05/01 10:51:28;;;;;;;5.03;1.60;;;;;;;19.00;18.55;99923.75;5055688;28;20067;-78
2022/05/01 10:54:13;;;;;;;2.50;1.50;;;;;;;19.87;17.63;99925.00;5072221;28;20077;-78
2022/05/01 10:56:40;;;;;;;4.07;1.80;;;;;;;20.24;17.36;99932.34;5048425;28;20044;-76
2022/05/01 10:59:30;;;;;;;4.72;1.90;;;;;;;20.45;17.30;99918.31;5072454;28;20036;-78
2022/05/01 11:01:58;;;;;;;3.65;1.70;;;;;;;20.55;16.82;99916.19;5072806;28;20040;-78
2022/05/01 11:04:24;;;;;;;3.63;1.33;;;;;;;20.61;16.78;99923.84;5058870;28;20071;-78
2022/05/01 11:06:54;;;;;;;2.95;1.55;;;;;;;20.40;17.00;99911.53;5056061;28;20055;-78
2022/05/01 11:09:21;;;;;;;4.75;1.90;;;;;;;19.52;17.33;99916.66;5057313;28;20438;-78
2022/05/01 11:11:47;;;;;;;2.90;1.65;;;;;;;19.27;17.90;99920.13;5043358;28;20042;-77
2022/05/01 11:14:13;;;;;;;2.72;1.60;;;;;;;19.55;17.76;99908.63;5076733;28;20039;-77
2022/05/01 11:16:52;;;;;;;3.00;1.73;;;;;;;20.25;18.05;99910.34;5062062;28;20062;-78
2022/05/01 11:19:17;;;;;;;4.82;1.80;;;;;;;20.62;17.17;99891.31;5075572;28;20438;-78
2022/05/01 11:21:49;;;;;;;2.30;1.90;;;;;;;20.60;17.04;99898.41;5043621;28;20032;-77
2022/05/01 11:24:15;;;;;;;2.97;1.85;;;;;;;20.51;17.29;99896.16;5067201;28;20049;-78
2022/05/01 11:27:18;;;;;;;3.83;1.90;;;;;;;20.37;17.66;99903.75;5053951;28;20095;-77
2022/05/01 11:30:06;;;;;;;4.03;1.92;;;;;;;19.64;17.87;99899.56;5063845;28;20475;-77
2022/05/01 11:33:02;;;;;;;3.90;1.90;;;;;;;19.13;18.31;99901.38;5055763;28;20033;-77
2022/05/01 11:36:00;;;;;;;3.42;1.80;;;;;;;19.30;18.16;99882.38;5071020;28;20063;-77
2022/05/01 11:38:38;;;;;;;3.92;1.88;;;;;;;19.78;17.67;99890.22;5058577;28;20032;-77
2022/05/01 11:41:04;;;;;;;2.90;1.80;;;;;;;20.07;17.51;99872.44;5067878;28;20040;-78
2022/05/01 11:43:30;;;;;;;4.25;1.70;;;;;;;20.94;17.20;99876.75;5013209;28;20033;-80
2022/05/01 11:45:56;;;;;;;2.28;1.60;;;;;;;21.51;16.60;99885.69;5055120;28;20060;-77
2022/05/01 11:48:22;;;;;;;2.25;1.40;;;;;;;20.96;16.72;99855.59;5041047;28;20021;-77
2022/05/01 11:50:53;;;;;;;2.83;1.80;;;;;;;20.29;17.59;99839.03;5036827;28;20404;-78
2022/05/01 11:53:22;;;;;;;3.65;2.03;;;;;;;19.37;18.19;99843.53;5046892;28;20165;-78
2022/05/01 12:04:31;;;;;;;3.15;2.20;;;;;;;19.54;18.32;99847.25;5046682;28;20040;-80
2022/05/01 12:07:08;;;;;;;5.93;2.38;;;;;;;18.77;19.29;99862.28;5050573;28;20044;-77
2022/05/01 12:09:38;;;;;;;4.25;2.20;;;;;;;18.38;19.59;99843.47;5062117;28;20043;-78
2022/05/01 12:12:09;;;;;;;3.38;2.22;;;;;;;18.08;20.62;99841.81;5059460;28;20138;-77